BCS2BA LOWW-EDDV
Flight info
| Callsign | BCS2BA |
|---|---|
| Flight time | 0h 59m |
| Altitude | 30000 |
| Route | TUN DCT VOZ DCT OKL DCT GOT DCT SAS |
| Aircraft | B722/M-SDFY/S |
Departure
| Time | 2026-04-22 18:26 |
|---|---|
| Airport | Vienna International Airport (LOWW) |
Arrival
| Time | 2026-04-22 19:25 |
|---|---|
| Airport | Hannover Airport (EDDV) |
| Time | Latitude | Longitude | Altitude | Speed | Heading |
|---|---|---|---|---|---|
| 2026-04-22 17:55 | 48.12127 | 16.55196 | 583 ft | 0 kts | 296° |
| 2026-04-22 18:11 | 48.12123 | 16.55207 | 583 ft | 1 kts | 296° |
| 2026-04-22 18:11 | 48.12118 | 16.55228 | 583 ft | 2 kts | 271° |
| 2026-04-22 18:11 | 48.12121 | 16.55250 | 583 ft | 2 kts | 249° |
| 2026-04-22 18:11 | 48.12128 | 16.55269 | 583 ft | 2 kts | 225° |
| 2026-04-22 18:12 | 48.12137 | 16.55280 | 583 ft | 0 kts | 208° |
| 2026-04-22 18:12 | 48.12144 | 16.55284 | 583 ft | 0 kts | 205° |
| 2026-04-22 18:12 | 48.12144 | 16.55285 | 583 ft | 0 kts | 205° |
| 2026-04-22 18:15 | 48.12131 | 16.55275 | 583 ft | 5 kts | 207° |
| 2026-04-22 18:15 | 48.12075 | 16.55232 | 584 ft | 10 kts | 207° |
| 2026-04-22 18:15 | 48.12009 | 16.55185 | 585 ft | 10 kts | 204° |
| 2026-04-22 18:16 | 48.11933 | 16.55189 | 586 ft | 13 kts | 190° |
| 2026-04-22 18:16 | 48.11868 | 16.55252 | 586 ft | 13 kts | 117° |
| 2026-04-22 18:16 | 48.11820 | 16.55402 | 585 ft | 18 kts | 114° |
| 2026-04-22 18:16 | 48.11758 | 16.55592 | 586 ft | 20 kts | 117° |
| 2026-04-22 18:17 | 48.11694 | 16.55788 | 586 ft | 20 kts | 118° |
| 2026-04-22 18:17 | 48.11633 | 16.55977 | 588 ft | 19 kts | 117° |
| 2026-04-22 18:17 | 48.11576 | 16.56151 | 592 ft | 17 kts | 114° |
| 2026-04-22 18:17 | 48.11523 | 16.56311 | 595 ft | 16 kts | 116° |
| 2026-04-22 18:18 | 48.11471 | 16.56469 | 600 ft | 18 kts | 116° |
| 2026-04-22 18:18 | 48.11411 | 16.56652 | 603 ft | 20 kts | 116° |
| 2026-04-22 18:18 | 48.11353 | 16.56835 | 606 ft | 18 kts | 117° |
| 2026-04-22 18:18 | 48.11297 | 16.57005 | 608 ft | 17 kts | 116° |
| 2026-04-22 18:19 | 48.11242 | 16.57177 | 607 ft | 18 kts | 116° |
| 2026-04-22 18:19 | 48.11182 | 16.57357 | 605 ft | 20 kts | 116° |
| 2026-04-22 18:19 | 48.11119 | 16.57552 | 602 ft | 17 kts | 115° |
| 2026-04-22 18:19 | 48.11061 | 16.57651 | 601 ft | 9 kts | 172° |
| 2026-04-22 18:20 | 48.11031 | 16.57641 | 602 ft | 0 kts | 205° |
| 2026-04-22 18:22 | 48.11023 | 16.57635 | 602 ft | 4 kts | 205° |
| 2026-04-22 18:22 | 48.10971 | 16.57598 | 603 ft | 9 kts | 207° |
| 2026-04-22 18:22 | 48.10919 | 16.57557 | 604 ft | 2 kts | 225° |
| 2026-04-22 18:23 | 48.10917 | 16.57547 | 604 ft | 0 kts | 266° |
| 2026-04-22 18:23 | 48.10919 | 16.57531 | 604 ft | 3 kts | 285° |
| 2026-04-22 18:23 | 48.10926 | 16.57503 | 604 ft | 0 kts | 295° |
| 2026-04-22 18:24 | 48.10936 | 16.57472 | 604 ft | 15 kts | 295° |
| 2026-04-22 18:25 | 48.11083 | 16.57020 | 607 ft | 82 kts | 297° |
| 2026-04-22 18:25 | 48.11433 | 16.55944 | 588 ft | 146 kts | 297° |
| 2026-04-22 18:25 | 48.11948 | 16.54387 | 828 ft | 175 kts | 298° |
| 2026-04-22 18:26 | 48.12867 | 16.51261 | 2198 ft | 172 kts | 277° |
| 2026-04-22 18:26 | 48.12580 | 16.49477 | 2599 ft | 191 kts | 241° |
| 2026-04-22 18:26 | 48.11872 | 16.47765 | 3191 ft | 196 kts | 242° |
| 2026-04-22 18:26 | 48.11133 | 16.46057 | 3841 ft | 200 kts | 240° |
| 2026-04-22 18:27 | 48.10344 | 16.44297 | 4323 ft | 211 kts | 240° |
| 2026-04-22 18:27 | 48.09713 | 16.42346 | 4836 ft | 211 kts | 270° |
| 2026-04-22 18:27 | 48.09734 | 16.40134 | 5343 ft | 221 kts | 281° |
| 2026-04-22 18:27 | 48.09954 | 16.37737 | 5726 ft | 241 kts | 284° |
| 2026-04-22 18:28 | 48.10241 | 16.35208 | 6373 ft | 252 kts | 284° |
| 2026-04-22 18:28 | 48.10545 | 16.32623 | 7096 ft | 259 kts | 284° |
| 2026-04-22 18:28 | 48.10868 | 16.29934 | 7815 ft | 266 kts | 284° |
| 2026-04-22 18:28 | 48.11205 | 16.27201 | 8565 ft | 270 kts | 284° |
| 2026-04-22 18:29 | 48.11546 | 16.24466 | 9327 ft | 274 kts | 284° |
| 2026-04-22 18:29 | 48.11912 | 16.21709 | 10026 ft | 275 kts | 291° |
| 2026-04-22 18:29 | 48.12886 | 16.19302 | 10639 ft | 272 kts | 316° |
| 2026-04-22 18:29 | 48.14315 | 16.17459 | 11286 ft | 273 kts | 326° |
| 2026-04-22 18:30 | 48.15809 | 16.15698 | 11911 ft | 279 kts | 322° |
| 2026-04-22 18:30 | 48.19019 | 16.11785 | 12462 ft | 314 kts | 325° |
| 2026-04-22 18:30 | 48.20754 | 16.09799 | 12935 ft | 324 kts | 326° |
| 2026-04-22 18:31 | 48.22581 | 16.07720 | 13472 ft | 332 kts | 326° |
| 2026-04-22 18:31 | 48.24436 | 16.05595 | 14051 ft | 338 kts | 326° |
| 2026-04-22 18:31 | 48.26310 | 16.03408 | 14656 ft | 343 kts | 325° |
| 2026-04-22 18:31 | 48.28186 | 16.01214 | 15276 ft | 346 kts | 326° |
| 2026-04-22 18:32 | 48.30136 | 15.99069 | 15884 ft | 348 kts | 327° |
| 2026-04-22 18:32 | 48.32061 | 15.96908 | 16463 ft | 351 kts | 327° |
| 2026-04-22 18:32 | 48.34050 | 15.94700 | 17022 ft | 354 kts | 328° |
| 2026-04-22 18:32 | 48.36024 | 15.92538 | 17500 ft | 357 kts | 328° |
| 2026-04-22 18:33 | 48.38009 | 15.90417 | 17930 ft | 359 kts | 329° |
| 2026-04-22 18:33 | 48.40070 | 15.88276 | 18340 ft | 362 kts | 330° |
| 2026-04-22 18:33 | 48.42171 | 15.86175 | 18746 ft | 364 kts | 331° |
| 2026-04-22 18:33 | 48.44314 | 15.84122 | 19142 ft | 366 kts | 332° |
| 2026-04-22 18:34 | 48.46505 | 15.82116 | 19530 ft | 368 kts | 333° |
| 2026-04-22 18:34 | 48.48709 | 15.80188 | 19899 ft | 370 kts | 334° |
| 2026-04-22 18:34 | 48.50944 | 15.78319 | 20271 ft | 371 kts | 335° |
| 2026-04-22 18:34 | 48.53229 | 15.76488 | 20628 ft | 373 kts | 336° |
| 2026-04-22 18:35 | 48.55547 | 15.74695 | 20986 ft | 375 kts | 337° |
| 2026-04-22 18:35 | 48.57899 | 15.72928 | 21321 ft | 377 kts | 338° |
| 2026-04-22 18:35 | 48.60247 | 15.71199 | 21645 ft | 379 kts | 338° |
| 2026-04-22 18:35 | 48.62633 | 15.69454 | 21985 ft | 380 kts | 338° |
| 2026-04-22 18:36 | 48.64970 | 15.67736 | 22296 ft | 382 kts | 338° |
| 2026-04-22 18:36 | 48.67371 | 15.65949 | 22594 ft | 384 kts | 338° |
| 2026-04-22 18:36 | 48.69754 | 15.64135 | 22873 ft | 387 kts | 337° |
| 2026-04-22 18:36 | 48.72164 | 15.62243 | 23143 ft | 390 kts | 336° |
| 2026-04-22 18:37 | 48.74523 | 15.60321 | 23402 ft | 392 kts | 335° |
| 2026-04-22 18:37 | 48.76911 | 15.58290 | 23673 ft | 395 kts | 334° |
| 2026-04-22 18:37 | 48.79287 | 15.56183 | 23923 ft | 397 kts | 334° |
| 2026-04-22 18:37 | 48.81663 | 15.53993 | 24210 ft | 398 kts | 333° |
| 2026-04-22 18:38 | 48.84012 | 15.51749 | 24506 ft | 399 kts | 332° |
| 2026-04-22 18:38 | 48.86322 | 15.49472 | 24793 ft | 400 kts | 332° |
| 2026-04-22 18:38 | 48.88643 | 15.47130 | 25069 ft | 400 kts | 331° |
| 2026-04-22 18:39 | 48.93230 | 15.42434 | 25594 ft | 401 kts | 331° |
| 2026-04-22 18:39 | 48.95538 | 15.40086 | 25840 ft | 401 kts | 332° |
| 2026-04-22 18:39 | 48.97879 | 15.37747 | 26087 ft | 401 kts | 333° |
| 2026-04-22 18:39 | 49.00200 | 15.35475 | 26320 ft | 401 kts | 333° |
| 2026-04-22 18:40 | 49.02437 | 15.33327 | 26527 ft | 401 kts | 333° |
| 2026-04-22 18:40 | 49.04801 | 15.31105 | 26733 ft | 401 kts | 334° |
| 2026-04-22 18:40 | 49.07191 | 15.28927 | 26936 ft | 401 kts | 335° |
| 2026-04-22 18:40 | 49.09611 | 15.26780 | 27143 ft | 401 kts | 335° |
| 2026-04-22 18:41 | 49.12017 | 15.24711 | 27341 ft | 401 kts | 336° |
| 2026-04-22 18:41 | 49.14440 | 15.22668 | 27535 ft | 401 kts | 337° |
| 2026-04-22 18:41 | 49.16860 | 15.20634 | 27737 ft | 401 kts | 337° |
| 2026-04-22 18:41 | 49.19326 | 15.18547 | 27924 ft | 402 kts | 336° |
| 2026-04-22 18:42 | 49.21752 | 15.16466 | 28091 ft | 403 kts | 336° |
| 2026-04-22 18:42 | 49.24187 | 15.14335 | 28255 ft | 404 kts | 336° |
| 2026-04-22 18:42 | 49.26598 | 15.12176 | 28426 ft | 404 kts | 335° |
| 2026-04-22 18:42 | 49.29006 | 15.09976 | 28575 ft | 405 kts | 335° |
| 2026-04-22 18:43 | 49.31406 | 15.07745 | 28741 ft | 406 kts | 335° |
| 2026-04-22 18:43 | 49.33793 | 15.05504 | 28903 ft | 406 kts | 335° |
| 2026-04-22 18:43 | 49.36174 | 15.03269 | 29046 ft | 406 kts | 335° |
| 2026-04-22 18:43 | 49.38595 | 15.01003 | 29200 ft | 406 kts | 335° |
| 2026-04-22 18:44 | 49.40964 | 14.98800 | 29355 ft | 406 kts | 335° |
| 2026-04-22 18:44 | 49.43393 | 14.96557 | 29482 ft | 407 kts | 336° |
| 2026-04-22 18:44 | 49.45817 | 14.94324 | 29612 ft | 407 kts | 336° |
| 2026-04-22 18:44 | 49.48239 | 14.92088 | 29759 ft | 407 kts | 336° |
| 2026-04-22 18:45 | 49.52834 | 14.86934 | 29931 ft | 416 kts | 327° |
| 2026-04-22 18:45 | 49.55080 | 14.84116 | 30055 ft | 415 kts | 328° |
| 2026-04-22 18:45 | 49.57359 | 14.81427 | 30179 ft | 414 kts | 330° |
| 2026-04-22 18:46 | 49.59587 | 14.78973 | 30332 ft | 411 kts | 333° |
| 2026-04-22 18:46 | 49.61956 | 14.76532 | 30477 ft | 409 kts | 334° |
| 2026-04-22 18:46 | 49.64399 | 14.74158 | 30606 ft | 408 kts | 335° |
| 2026-04-22 18:46 | 49.66783 | 14.71940 | 30530 ft | 413 kts | 336° |
| 2026-04-22 18:47 | 49.69284 | 14.69671 | 30412 ft | 419 kts | 336° |
| 2026-04-22 18:47 | 49.71825 | 14.67363 | 30315 ft | 426 kts | 336° |
| 2026-04-22 18:47 | 49.76811 | 14.62649 | 30261 ft | 436 kts | 334° |
| 2026-04-22 18:48 | 49.81906 | 14.57356 | 30263 ft | 445 kts | 332° |
| 2026-04-22 18:48 | 49.86929 | 14.51701 | 30266 ft | 453 kts | 330° |
| 2026-04-22 18:49 | 49.91888 | 14.45989 | 30266 ft | 460 kts | 330° |
| 2026-04-22 18:49 | 49.97097 | 14.40157 | 30266 ft | 465 kts | 332° |
| 2026-04-22 18:50 | 50.02412 | 14.34381 | 30263 ft | 471 kts | 331° |
| 2026-04-22 18:50 | 50.07761 | 14.28522 | 30264 ft | 476 kts | 331° |
| 2026-04-22 18:51 | 50.12426 | 14.22620 | 30266 ft | 488 kts | 321° |
| 2026-04-22 18:51 | 50.17253 | 14.14277 | 30266 ft | 497 kts | 316° |
| 2026-04-22 18:52 | 50.21722 | 14.06106 | 30275 ft | 502 kts | 315° |
| 2026-04-22 18:52 | 50.26182 | 13.97729 | 30286 ft | 507 kts | 314° |
| 2026-04-22 18:53 | 50.30540 | 13.89241 | 30295 ft | 513 kts | 313° |
| 2026-04-22 18:53 | 50.34870 | 13.80406 | 30293 ft | 518 kts | 311° |
| 2026-04-22 18:54 | 50.39141 | 13.71234 | 30292 ft | 523 kts | 310° |
| 2026-04-22 18:54 | 50.43288 | 13.61879 | 30292 ft | 527 kts | 309° |
| 2026-04-22 18:55 | 50.47348 | 13.52384 | 30292 ft | 531 kts | 308° |
| 2026-04-22 18:55 | 50.51395 | 13.42724 | 30290 ft | 531 kts | 308° |
| 2026-04-22 18:56 | 50.55338 | 13.33331 | 30289 ft | 530 kts | 307° |
| 2026-04-22 18:56 | 50.59365 | 13.23916 | 30290 ft | 529 kts | 308° |
| 2026-04-22 18:57 | 50.63555 | 13.14490 | 30294 ft | 528 kts | 309° |
| 2026-04-22 18:57 | 50.67877 | 13.05193 | 30307 ft | 526 kts | 310° |
| 2026-04-22 18:58 | 50.72311 | 12.96037 | 30317 ft | 524 kts | 311° |
| 2026-04-22 18:58 | 50.76777 | 12.87059 | 30319 ft | 524 kts | 312° |
| 2026-04-22 18:59 | 50.81267 | 12.78090 | 30317 ft | 523 kts | 312° |
| 2026-04-22 18:59 | 50.85748 | 12.68985 | 30317 ft | 523 kts | 311° |
| 2026-04-22 19:00 | 50.90071 | 12.59864 | 30317 ft | 524 kts | 310° |
| 2026-04-22 19:00 | 50.94314 | 12.50517 | 30317 ft | 524 kts | 309° |
| 2026-04-22 19:01 | 50.98432 | 12.41087 | 30317 ft | 524 kts | 308° |
| 2026-04-22 19:01 | 51.02493 | 12.31616 | 30315 ft | 524 kts | 307° |
| 2026-04-22 19:02 | 51.06597 | 12.22015 | 30317 ft | 523 kts | 307° |
| 2026-04-22 19:02 | 51.10619 | 12.12810 | 30317 ft | 522 kts | 309° |
| 2026-04-22 19:03 | 51.14792 | 12.03762 | 30317 ft | 521 kts | 309° |
| 2026-04-22 19:03 | 51.19070 | 11.94466 | 30318 ft | 521 kts | 309° |
| 2026-04-22 19:04 | 51.23237 | 11.85164 | 30317 ft | 521 kts | 308° |
| 2026-04-22 19:04 | 51.27347 | 11.75768 | 30317 ft | 522 kts | 308° |
| 2026-04-22 19:05 | 51.31501 | 11.66257 | 30317 ft | 522 kts | 308° |
| 2026-04-22 19:05 | 51.35657 | 11.56803 | 30315 ft | 516 kts | 309° |
| 2026-04-22 19:06 | 51.37718 | 11.52248 | 30295 ft | 497 kts | 310° |
| 2026-04-22 19:06 | 51.39745 | 11.47886 | 29801 ft | 491 kts | 311° |
| 2026-04-22 19:06 | 51.41820 | 11.43584 | 29066 ft | 490 kts | 312° |
| 2026-04-22 19:07 | 51.46104 | 11.35237 | 27535 ft | 488 kts | 314° |
| 2026-04-22 19:07 | 51.48095 | 11.31577 | 26810 ft | 487 kts | 314° |
| 2026-04-22 19:07 | 51.50331 | 11.27616 | 26005 ft | 487 kts | 315° |
| 2026-04-22 19:07 | 51.52729 | 11.23526 | 25328 ft | 481 kts | 316° |
| 2026-04-22 19:08 | 51.55013 | 11.19736 | 24920 ft | 471 kts | 317° |
| 2026-04-22 19:08 | 51.57281 | 11.16038 | 24447 ft | 464 kts | 317° |
| 2026-04-22 19:08 | 51.59519 | 11.12426 | 23916 ft | 458 kts | 318° |
| 2026-04-22 19:08 | 51.61742 | 11.08843 | 23399 ft | 451 kts | 318° |
| 2026-04-22 19:09 | 51.63900 | 11.05336 | 23130 ft | 440 kts | 317° |
| 2026-04-22 19:09 | 51.66031 | 11.01817 | 22716 ft | 432 kts | 317° |
| 2026-04-22 19:09 | 51.68067 | 10.98374 | 22427 ft | 421 kts | 316° |
| 2026-04-22 19:09 | 51.70004 | 10.95000 | 22344 ft | 406 kts | 315° |
| 2026-04-22 19:10 | 51.71865 | 10.91651 | 22308 ft | 390 kts | 314° |
| 2026-04-22 19:10 | 51.73574 | 10.88470 | 22297 ft | 373 kts | 314° |
| 2026-04-22 19:10 | 51.75196 | 10.85343 | 22297 ft | 357 kts | 313° |
| 2026-04-22 19:10 | 51.76723 | 10.82305 | 22302 ft | 346 kts | 312° |
| 2026-04-22 19:11 | 51.78209 | 10.79283 | 22313 ft | 349 kts | 311° |
| 2026-04-22 19:11 | 51.79709 | 10.76185 | 22319 ft | 351 kts | 311° |
| 2026-04-22 19:11 | 51.81196 | 10.73095 | 22028 ft | 351 kts | 311° |
| 2026-04-22 19:11 | 51.82691 | 10.69978 | 21541 ft | 350 kts | 311° |
| 2026-04-22 19:12 | 51.84179 | 10.66889 | 21089 ft | 348 kts | 311° |
| 2026-04-22 19:12 | 51.85672 | 10.63818 | 20645 ft | 345 kts | 312° |
| 2026-04-22 19:12 | 51.87158 | 10.60800 | 20213 ft | 343 kts | 312° |
| 2026-04-22 19:12 | 51.88626 | 10.57868 | 19799 ft | 340 kts | 313° |
| 2026-04-22 19:13 | 51.90091 | 10.55008 | 19385 ft | 337 kts | 314° |
| 2026-04-22 19:13 | 51.91599 | 10.52114 | 18963 ft | 334 kts | 314° |
| 2026-04-22 19:13 | 51.93096 | 10.49291 | 18550 ft | 331 kts | 315° |
| 2026-04-22 19:13 | 51.94613 | 10.46476 | 18019 ft | 334 kts | 315° |
| 2026-04-22 19:14 | 51.96130 | 10.43706 | 17321 ft | 340 kts | 315° |
| 2026-04-22 19:14 | 51.97719 | 10.40828 | 16751 ft | 341 kts | 315° |
| 2026-04-22 19:14 | 51.99380 | 10.38117 | 16204 ft | 340 kts | 322° |
| 2026-04-22 19:14 | 52.01162 | 10.35617 | 15643 ft | 340 kts | 325° |
| 2026-04-22 19:15 | 52.02885 | 10.33898 | 15173 ft | 336 kts | 335° |
| 2026-04-22 19:15 | 52.04789 | 10.32377 | 14734 ft | 334 kts | 336° |
| 2026-04-22 19:15 | 52.07736 | 10.30170 | 14094 ft | 331 kts | 338° |
| 2026-04-22 19:15 | 52.09771 | 10.28679 | 13563 ft | 332 kts | 338° |
| 2026-04-22 19:16 | 52.11624 | 10.27332 | 13097 ft | 333 kts | 338° |
| 2026-04-22 19:16 | 52.15364 | 10.24625 | 12292 ft | 329 kts | 338° |
| 2026-04-22 19:16 | 52.17446 | 10.23123 | 11893 ft | 326 kts | 338° |
| 2026-04-22 19:17 | 52.19510 | 10.21635 | 11485 ft | 323 kts | 338° |
| 2026-04-22 19:17 | 52.21555 | 10.20168 | 11036 ft | 322 kts | 338° |
| 2026-04-22 19:17 | 52.23577 | 10.18729 | 10562 ft | 322 kts | 338° |
| 2026-04-22 19:17 | 52.25574 | 10.17314 | 10510 ft | 306 kts | 338° |
| 2026-04-22 19:18 | 52.27490 | 10.15954 | 10473 ft | 292 kts | 338° |
| 2026-04-22 19:18 | 52.29317 | 10.14657 | 10324 ft | 282 kts | 338° |
| 2026-04-22 19:18 | 52.31091 | 10.13404 | 10079 ft | 273 kts | 338° |
| 2026-04-22 19:18 | 52.32764 | 10.12230 | 9373 ft | 264 kts | 338° |
| 2026-04-22 19:19 | 52.34454 | 10.11051 | 8396 ft | 262 kts | 338° |
| 2026-04-22 19:19 | 52.36117 | 10.09896 | 7383 ft | 263 kts | 338° |
| 2026-04-22 19:19 | 52.37756 | 10.08769 | 6441 ft | 261 kts | 338° |
| 2026-04-22 19:19 | 52.39417 | 10.07654 | 5513 ft | 257 kts | 338° |
| 2026-04-22 19:20 | 52.41057 | 10.06574 | 4617 ft | 253 kts | 338° |
| 2026-04-22 19:20 | 52.42657 | 10.05499 | 4133 ft | 247 kts | 338° |
| 2026-04-22 19:20 | 52.44223 | 10.04413 | 3941 ft | 241 kts | 338° |
| 2026-04-22 19:20 | 52.45472 | 10.02732 | 3718 ft | 235 kts | 300° |
| 2026-04-22 19:21 | 52.45861 | 10.00143 | 3440 ft | 237 kts | 267° |
| 2026-04-22 19:21 | 52.45425 | 9.97576 | 3231 ft | 233 kts | 250° |
| 2026-04-22 19:21 | 52.44898 | 9.95109 | 3029 ft | 224 kts | 262° |
| 2026-04-22 19:21 | 52.44729 | 9.92619 | 2818 ft | 213 kts | 271° |
| 2026-04-22 19:22 | 52.44753 | 9.90312 | 2543 ft | 195 kts | 276° |
| 2026-04-22 19:22 | 52.44832 | 9.88219 | 2297 ft | 169 kts | 276° |
| 2026-04-22 19:22 | 52.44902 | 9.86469 | 2016 ft | 141 kts | 277° |
| 2026-04-22 19:22 | 52.44970 | 9.84853 | 1809 ft | 143 kts | 277° |
| 2026-04-22 19:23 | 52.45038 | 9.83207 | 1641 ft | 143 kts | 276° |
| 2026-04-22 19:23 | 52.45115 | 9.81584 | 1441 ft | 141 kts | 274° |
| 2026-04-22 19:23 | 52.45171 | 9.79984 | 1254 ft | 141 kts | 274° |
| 2026-04-22 19:23 | 52.45214 | 9.78359 | 1075 ft | 143 kts | 273° |
| 2026-04-22 19:24 | 52.45242 | 9.76727 | 911 ft | 143 kts | 273° |
| 2026-04-22 19:24 | 52.45285 | 9.75089 | 688 ft | 143 kts | 274° |
| 2026-04-22 19:24 | 52.45341 | 9.73474 | 497 ft | 141 kts | 274° |
| 2026-04-22 19:24 | 52.45379 | 9.71882 | 304 ft | 141 kts | 274° |
| 2026-04-22 19:25 | 52.45427 | 9.70279 | 177 ft | 136 kts | 273° |
| 2026-04-22 19:25 | 52.45463 | 9.68944 | 169 ft | 96 kts | 273° |
| 2026-04-22 19:25 | 52.45486 | 9.68090 | 172 ft | 48 kts | 272° |
| 2026-04-22 19:25 | 52.45496 | 9.67816 | 172 ft | 14 kts | 280° |
| 2026-04-22 19:26 | 52.45542 | 9.67709 | 175 ft | 10 kts | 339° |
| 2026-04-22 19:26 | 52.45615 | 9.67713 | 175 ft | 11 kts | 32° |
| 2026-04-22 19:26 | 52.45658 | 9.67819 | 175 ft | 11 kts | 85° |
| 2026-04-22 19:26 | 52.45657 | 9.67965 | 173 ft | 14 kts | 92° |
| 2026-04-22 19:27 | 52.45650 | 9.68130 | 172 ft | 9 kts | 94° |
| 2026-04-22 19:27 | 52.45661 | 9.68242 | 171 ft | 11 kts | 43° |
| 2026-04-22 19:27 | 52.45733 | 9.68306 | 171 ft | 12 kts | 27° |
| 2026-04-22 19:27 | 52.45796 | 9.68374 | 171 ft | 8 kts | 76° |
| 2026-04-22 19:28 | 52.45789 | 9.68509 | 166 ft | 14 kts | 94° |
| 2026-04-22 19:28 | 52.45781 | 9.68637 | 163 ft | 6 kts | 129° |
| 2026-04-22 19:28 | 52.45736 | 9.68634 | 163 ft | 6 kts | 183° |
| 2026-04-22 19:28 | 52.45724 | 9.68633 | 163 ft | 0 kts | 183° |